createdAt,value
2019-02-02T00:00:44.061Z,2.00
2019-02-02T00:03:13.375Z,2.00
2019-02-02T00:05:42.609Z,1.90
2019-02-02T00:08:11.997Z,2.00
2019-02-02T00:10:41.250Z,1.90
2019-02-02T00:13:10.515Z,1.90
2019-02-02T00:15:39.821Z,1.90
2019-02-02T00:18:09.305Z,1.90
2019-02-02T00:20:38.639Z,1.90
2019-02-02T00:23:07.913Z,1.90
2019-02-02T00:25:37.136Z,1.90
2019-02-02T00:28:06.573Z,1.90
2019-02-02T00:30:35.813Z,1.90
2019-02-02T00:33:05.668Z,1.90
2019-02-02T00:35:34.896Z,1.90
2019-02-02T00:38:04.423Z,1.90
2019-02-02T00:40:33.709Z,1.90
2019-02-02T00:43:02.983Z,1.90
2019-02-02T00:45:32.678Z,1.90
2019-02-02T00:48:01.950Z,1.90
2019-02-02T00:50:31.215Z,1.90
2019-02-02T00:53:01.190Z,1.90
2019-02-02T00:55:31.604Z,1.90
2019-02-02T00:58:00.856Z,1.90
2019-02-02T01:00:30.310Z,1.90
2019-02-02T01:02:59.551Z,1.90
2019-02-02T01:05:28.959Z,1.90
2019-02-02T01:07:58.194Z,1.90
2019-02-02T01:10:30.500Z,1.90
2019-02-02T01:13:00.007Z,1.90
2019-02-02T01:15:29.566Z,1.90
2019-02-02T01:17:58.998Z,1.90
2019-02-02T01:20:28.868Z,1.90
2019-02-02T01:22:58.124Z,1.90
2019-02-02T01:25:27.392Z,1.90
2019-02-02T01:28:04.879Z,1.80
2019-02-02T01:30:28.038Z,1.80
2019-02-02T01:32:57.362Z,1.80
2019-02-02T01:35:26.596Z,1.80
2019-02-02T01:37:55.849Z,1.80
2019-02-02T01:40:26.429Z,1.80
2019-02-02T01:42:56.454Z,1.80
2019-02-02T01:45:27.151Z,1.80
2019-02-02T01:47:56.921Z,1.80
2019-02-02T01:50:27.487Z,1.80
2019-02-02T01:52:57.194Z,1.80
2019-02-02T01:55:26.618Z,1.80
2019-02-02T01:57:55.937Z,1.80
2019-02-02T02:00:30.616Z,1.80
2019-02-02T02:02:59.951Z,1.80
2019-02-02T02:05:29.378Z,1.80
2019-02-02T02:07:59.188Z,1.80
2019-02-02T02:10:28.425Z,1.80
2019-02-02T02:12:57.666Z,1.90
2019-02-02T02:15:26.999Z,1.90
2019-02-02T02:17:56.324Z,1.90
2019-02-02T02:20:25.573Z,1.90
2019-02-02T02:22:54.838Z,1.90
2019-02-02T02:25:24.105Z,1.90
2019-02-02T02:27:53.334Z,1.90
2019-02-02T02:30:24.014Z,1.90
2019-02-02T02:32:53.620Z,1.90
2019-02-02T02:35:23.064Z,1.90
2019-02-02T02:37:52.374Z,1.90
2019-02-02T02:40:23.256Z,1.90
2019-02-02T02:42:53.131Z,1.90
2019-02-02T02:45:22.511Z,1.90
2019-02-02T02:47:51.905Z,1.90
2019-02-02T02:50:22.397Z,1.90
2019-02-02T02:52:51.874Z,1.90
2019-02-02T02:55:21.108Z,1.80
2019-02-02T02:57:50.359Z,1.80
2019-02-02T03:00:21.526Z,1.80
2019-02-02T03:02:51.209Z,1.80
2019-02-02T03:05:21.298Z,1.80
2019-02-02T03:07:52.090Z,1.80
2019-02-02T03:10:23.483Z,1.80
2019-02-02T03:12:53.653Z,1.80
2019-02-02T03:15:23.209Z,1.70
2019-02-02T03:17:52.764Z,1.70
2019-02-02T03:20:22.267Z,1.70
2019-02-02T03:22:51.537Z,1.70
2019-02-02T03:25:25.632Z,1.60
2019-02-02T03:27:55.077Z,1.60
2019-02-02T03:30:24.319Z,1.50
2019-02-02T03:32:53.628Z,1.50
2019-02-02T03:35:25.750Z,1.50
2019-02-02T03:37:55.371Z,1.50
2019-02-02T03:40:24.985Z,1.50
2019-02-02T03:42:54.313Z,1.50
2019-02-02T03:45:24.506Z,1.50
2019-02-02T03:47:55.263Z,1.50
2019-02-02T03:50:24.855Z,1.50
2019-02-02T03:52:54.097Z,1.50
2019-02-02T03:55:23.488Z,1.50
2019-02-02T03:57:53.306Z,1.50
2019-02-02T04:00:22.988Z,1.50
2019-02-02T04:02:52.362Z,1.50
2019-02-02T04:05:26.741Z,1.50
2019-02-02T04:07:56.001Z,1.50
2019-02-02T04:10:25.260Z,1.50
2019-02-02T04:12:54.571Z,1.50
2019-02-02T04:15:23.870Z,1.50
2019-02-02T04:17:53.383Z,1.50
2019-02-02T04:20:23.466Z,1.50
2019-02-02T04:22:52.973Z,1.50
2019-02-02T04:25:23.055Z,1.50
2019-02-02T04:27:52.658Z,1.50
2019-02-02T04:30:26.671Z,1.50
2019-02-02T04:32:56.080Z,1.40
2019-02-02T04:35:25.511Z,1.50
2019-02-02T04:37:54.801Z,1.40
2019-02-02T04:40:24.359Z,1.40
2019-02-02T04:42:53.587Z,1.40
2019-02-02T04:45:22.894Z,1.40
2019-02-02T04:47:52.128Z,1.40
2019-02-02T04:50:21.949Z,1.40
2019-02-02T04:52:51.262Z,1.40
2019-02-02T04:55:20.566Z,1.40
2019-02-02T04:57:49.871Z,1.40
2019-02-02T05:00:28.486Z,1.40
2019-02-02T05:02:57.734Z,1.40
2019-02-02T05:05:27.007Z,1.40
2019-02-02T05:07:56.256Z,1.40
2019-02-02T05:10:44.850Z,1.40
2019-02-02T05:13:14.096Z,1.40
2019-02-02T05:15:43.448Z,1.40
2019-02-02T05:18:12.743Z,1.40
2019-02-02T05:20:42.004Z,1.40
2019-02-02T05:23:11.254Z,1.40
2019-02-02T05:25:41.463Z,1.40
2019-02-02T05:28:10.723Z,1.40
2019-02-02T05:30:39.976Z,1.40
2019-02-02T05:33:09.214Z,1.40
2019-02-02T05:35:38.466Z,1.40
2019-02-02T05:38:07.705Z,1.40
2019-02-02T05:40:36.932Z,1.40
2019-02-02T05:43:06.252Z,1.40
2019-02-02T05:45:35.492Z,1.40
2019-02-02T05:48:04.975Z,1.40
2019-02-02T05:50:34.236Z,1.40
2019-02-02T05:53:03.482Z,1.40
2019-02-02T05:55:32.798Z,1.40
2019-02-02T05:58:02.036Z,1.50
2019-02-02T06:00:33.395Z,1.50
2019-02-02T06:03:02.714Z,1.50
2019-02-02T06:05:32.044Z,1.50
2019-02-02T06:08:01.276Z,1.50
2019-02-02T06:10:30.709Z,1.50
2019-02-02T06:13:00.030Z,1.50
2019-02-02T06:15:29.388Z,1.50
2019-02-02T06:17:58.895Z,1.50
2019-02-02T06:20:28.257Z,1.50
2019-02-02T06:22:57.581Z,1.60
2019-02-02T06:25:26.844Z,1.60
2019-02-02T06:27:56.151Z,1.60
2019-02-02T06:30:26.049Z,1.60
2019-02-02T06:32:55.358Z,1.60
2019-02-02T06:35:24.610Z,1.60
2019-02-02T06:37:53.872Z,1.60
2019-02-02T06:40:23.191Z,1.60
2019-02-02T06:42:52.542Z,1.60
2019-02-02T06:45:27.655Z,1.70
2019-02-02T06:47:57.227Z,1.70
2019-02-02T06:50:26.649Z,1.70
2019-02-02T06:52:56.235Z,1.70
2019-02-02T06:55:25.485Z,1.70
2019-02-02T06:57:54.806Z,1.70
2019-02-02T07:00:28.461Z,1.70
2019-02-02T07:02:57.699Z,1.70
2019-02-02T07:05:27.297Z,1.70
2019-02-02T07:07:56.630Z,1.70
2019-02-02T07:10:28.244Z,1.70
2019-02-02T07:12:57.647Z,1.70
2019-02-02T07:15:29.379Z,1.70
2019-02-02T07:17:58.728Z,1.70
2019-02-02T07:20:28.054Z,1.70
2019-02-02T07:22:57.451Z,1.70
2019-02-02T07:25:26.787Z,1.80
2019-02-02T07:27:56.191Z,1.80
2019-02-02T07:30:29.093Z,1.80
2019-02-02T07:32:56.935Z,1.80
2019-02-02T07:35:26.322Z,1.80
2019-02-02T07:37:55.561Z,1.80
2019-02-02T07:40:24.811Z,1.80
2019-02-02T07:42:54.055Z,1.80
2019-02-02T07:45:29.042Z,1.90
2019-02-02T07:47:58.277Z,1.80
2019-02-02T07:50:27.761Z,1.80
2019-02-02T07:52:57.062Z,1.90
2019-02-02T07:55:26.300Z,1.90
2019-02-02T07:57:55.547Z,1.90
2019-02-02T08:00:40.383Z,1.90
2019-02-02T08:03:01.405Z,2.00
2019-02-02T08:05:30.888Z,2.00
2019-02-02T08:08:00.254Z,2.00
2019-02-02T08:10:29.651Z,2.00
2019-02-02T08:12:58.964Z,2.00
2019-02-02T08:15:33.429Z,2.00
2019-02-02T08:18:02.751Z,2.10
2019-02-02T08:20:31.980Z,2.10
2019-02-02T08:23:01.260Z,2.10
2019-02-02T08:25:30.584Z,2.10
2019-02-02T08:27:59.861Z,2.10
2019-02-02T08:30:31.448Z,2.10
2019-02-02T08:33:00.850Z,2.10
2019-02-02T08:35:30.169Z,2.20
2019-02-02T08:37:59.494Z,2.20
2019-02-02T08:40:28.740Z,2.20
2019-02-02T08:42:58.004Z,2.30
2019-02-02T08:45:27.233Z,2.30
2019-02-02T08:47:56.470Z,2.30
2019-02-02T08:50:31.647Z,2.30
2019-02-02T08:53:01.010Z,2.30
2019-02-02T08:55:30.686Z,2.40
2019-02-02T08:58:00.031Z,2.40
2019-02-02T09:00:29.452Z,2.40
2019-02-02T09:02:58.901Z,2.40
2019-02-02T09:05:28.282Z,2.40
2019-02-02T09:07:57.542Z,2.40
2019-02-02T09:10:28.473Z,2.50
2019-02-02T09:12:58.341Z,2.50
2019-02-02T09:15:27.819Z,2.50
2019-02-02T09:17:57.072Z,2.50
2019-02-02T09:20:26.638Z,2.50
2019-02-02T09:23:04.203Z,2.50
2019-02-02T09:25:26.958Z,2.50
2019-02-02T09:27:56.218Z,2.50
2019-02-02T09:30:30.786Z,2.60
2019-02-02T09:33:00.169Z,2.60
2019-02-02T09:35:29.461Z,2.60
2019-02-02T09:37:58.796Z,2.60
2019-02-02T09:40:28.166Z,2.60
2019-02-02T09:42:57.432Z,2.60
2019-02-02T09:45:26.693Z,2.60
2019-02-02T09:47:56.066Z,2.60
2019-02-02T09:50:26.749Z,2.60
2019-02-02T09:52:56.250Z,2.60
2019-02-02T09:55:26.724Z,2.70
2019-02-02T09:58:05.168Z,2.70
2019-02-02T10:00:34.542Z,2.70
2019-02-02T10:03:04.654Z,2.70
2019-02-02T10:05:33.898Z,2.80
2019-02-02T10:08:03.175Z,2.80
2019-02-02T10:10:34.068Z,2.80
2019-02-02T10:13:03.542Z,2.80
2019-02-02T10:15:32.765Z,2.80
2019-02-02T10:18:02.032Z,2.80
2019-02-02T10:20:32.162Z,2.90
2019-02-02T10:23:01.706Z,2.90
2019-02-02T10:25:31.715Z,2.90
2019-02-02T10:28:01.066Z,2.90
2019-02-02T10:30:32.557Z,3.00
2019-02-02T10:33:01.860Z,3.00
2019-02-02T10:35:31.356Z,3.10
2019-02-02T10:38:00.663Z,3.10
2019-02-02T10:40:30.271Z,3.10
2019-02-02T10:42:59.826Z,3.10
2019-02-02T10:45:29.139Z,3.10
2019-02-02T10:47:58.662Z,3.20
2019-02-02T10:50:27.977Z,3.10
2019-02-02T10:52:57.291Z,3.20
2019-02-02T10:55:26.602Z,3.20
2019-02-02T10:57:55.923Z,3.20
2019-02-02T11:00:27.691Z,3.30
2019-02-02T11:02:57.289Z,3.40
2019-02-02T11:05:26.623Z,3.50
2019-02-02T11:07:56.143Z,3.60
2019-02-02T11:10:33.429Z,3.70
2019-02-02T11:13:02.853Z,3.80
2019-02-02T11:15:32.195Z,3.80
2019-02-02T11:18:01.708Z,3.90
2019-02-02T11:20:33.022Z,3.90
2019-02-02T11:23:02.532Z,3.90
2019-02-02T11:25:32.116Z,3.90
2019-02-02T11:28:01.625Z,3.90
2019-02-02T11:30:31.637Z,3.90
2019-02-02T11:33:01.119Z,3.80
2019-02-02T11:35:30.356Z,3.70
2019-02-02T11:37:59.598Z,3.70
2019-02-02T11:40:33.963Z,3.60
2019-02-02T11:43:03.837Z,3.60
2019-02-02T11:45:33.125Z,3.60
2019-02-02T11:48:02.452Z,3.70
2019-02-02T11:50:31.702Z,3.80
2019-02-02T11:53:00.990Z,4.00
2019-02-02T11:55:30.297Z,4.10
2019-02-02T11:57:59.545Z,4.20
2019-02-02T12:00:36.696Z,4.20
2019-02-02T12:03:06.188Z,4.30
2019-02-02T12:05:35.573Z,4.40
2019-02-02T12:08:05.548Z,4.60
2019-02-02T12:10:35.646Z,4.70
2019-02-02T12:13:05.332Z,4.70
2019-02-02T12:15:34.784Z,4.80
2019-02-02T12:18:04.519Z,4.90
2019-02-02T12:20:33.893Z,4.90
2019-02-02T12:23:03.379Z,4.90
2019-02-02T12:25:32.653Z,4.80
2019-02-02T12:28:01.896Z,4.80
2019-02-02T12:30:33.755Z,4.80
2019-02-02T12:33:03.804Z,4.80
2019-02-02T12:35:33.233Z,4.80
2019-02-02T12:38:02.786Z,4.90
2019-02-02T12:40:32.117Z,4.90
2019-02-02T12:43:01.370Z,4.90
2019-02-02T12:45:37.120Z,4.80
2019-02-02T12:48:07.013Z,4.70
2019-02-02T12:50:36.405Z,4.60
2019-02-02T12:53:05.868Z,4.70
2019-02-02T12:55:35.183Z,4.70
2019-02-02T12:58:06.176Z,4.70
2019-02-02T13:00:35.573Z,4.80
2019-02-02T13:03:05.622Z,4.90
2019-02-02T13:05:34.934Z,4.90
2019-02-02T13:08:05.696Z,4.90
2019-02-02T13:10:35.204Z,5.00
2019-02-02T13:13:04.720Z,5.00
2019-02-02T13:15:34.043Z,5.00
2019-02-02T13:18:03.362Z,5.10
2019-02-02T13:20:32.603Z,5.10
2019-02-02T13:23:01.854Z,5.10
2019-02-02T13:25:31.110Z,5.10
2019-02-02T13:28:00.351Z,5.10
2019-02-02T13:30:32.492Z,5.20
2019-02-02T13:33:01.754Z,5.20
2019-02-02T13:35:33.601Z,5.20
2019-02-02T13:38:02.916Z,5.20
2019-02-02T13:40:32.327Z,5.30
2019-02-02T13:43:01.617Z,5.30
2019-02-02T13:45:30.943Z,5.40
2019-02-02T13:48:12.333Z,5.40
2019-02-02T13:50:42.198Z,5.50
2019-02-02T13:53:11.563Z,5.50
2019-02-02T13:55:40.805Z,5.50
2019-02-02T13:58:10.179Z,5.50
2019-02-02T14:00:39.450Z,5.50
2019-02-02T14:03:08.701Z,5.50
2019-02-02T14:05:38.026Z,5.50
2019-02-02T14:08:07.354Z,5.50
2019-02-02T14:10:36.762Z,5.50
2019-02-02T14:13:06.194Z,5.60
2019-02-02T14:15:35.534Z,5.60
2019-02-02T14:18:05.233Z,5.50
2019-02-02T14:20:34.469Z,5.50
2019-02-02T14:23:03.798Z,5.50
2019-02-02T14:25:33.087Z,5.40
2019-02-02T14:28:02.452Z,5.30
2019-02-02T14:30:31.842Z,5.20
2019-02-02T14:33:12.983Z,5.20
2019-02-02T14:35:32.115Z,5.20
2019-02-02T14:38:01.346Z,5.20
2019-02-02T14:40:30.686Z,5.20
2019-02-02T14:42:59.914Z,5.20
2019-02-02T14:45:29.314Z,5.30
2019-02-02T14:47:58.548Z,5.30
2019-02-02T14:50:27.985Z,5.30
2019-02-02T14:52:57.224Z,5.40
2019-02-02T14:55:28.975Z,5.40
2019-02-02T14:57:58.212Z,5.30
2019-02-02T15:00:29.195Z,5.20
2019-02-02T15:02:58.722Z,5.20
2019-02-02T15:05:28.044Z,5.10
2019-02-02T15:07:57.280Z,5.10
2019-02-02T15:10:26.606Z,5.00
2019-02-02T15:12:55.854Z,5.00
2019-02-02T15:15:25.157Z,5.00
2019-02-02T15:17:54.473Z,5.00
2019-02-02T15:20:29.092Z,5.00
2019-02-02T15:22:58.418Z,5.00
2019-02-02T15:25:27.842Z,4.90
2019-02-02T15:27:57.220Z,4.80
2019-02-02T15:30:31.934Z,4.70
2019-02-02T15:33:01.270Z,4.70
2019-02-02T15:35:30.675Z,4.60
2019-02-02T15:37:59.998Z,4.50
2019-02-02T15:40:31.443Z,4.40
2019-02-02T15:43:00.545Z,4.30
2019-02-02T15:45:31.521Z,4.20
2019-02-02T15:48:00.900Z,4.20
2019-02-02T15:50:30.275Z,4.20
2019-02-02T15:52:59.616Z,4.10
2019-02-02T15:55:28.922Z,4.00
2019-02-02T15:57:58.174Z,4.00
2019-02-02T16:00:30.102Z,3.90
2019-02-02T16:02:59.581Z,3.80
2019-02-02T16:05:29.353Z,3.80
2019-02-02T16:08:00.607Z,3.70
2019-02-02T16:10:31.994Z,3.70
2019-02-02T16:13:01.772Z,3.60
2019-02-02T16:15:34.136Z,3.50
2019-02-02T16:18:02.083Z,3.50
2019-02-02T16:20:41.895Z,3.40
2019-02-02T16:23:10.341Z,3.50
2019-02-02T16:25:39.592Z,3.50
2019-02-02T16:28:08.993Z,3.50
2019-02-02T16:30:38.391Z,3.60
2019-02-02T16:33:07.862Z,3.60
2019-02-02T16:35:37.211Z,3.70
2019-02-02T16:38:07.109Z,3.70
2019-02-02T16:40:36.381Z,3.70
2019-02-02T16:43:05.963Z,3.70
2019-02-02T16:45:35.635Z,3.60
2019-02-02T16:48:05.722Z,3.60
2019-02-02T16:50:35.031Z,3.60
2019-02-02T16:53:04.484Z,3.50
2019-02-02T16:55:33.787Z,3.50
2019-02-02T16:58:03.049Z,3.40
2019-02-02T17:00:33.942Z,3.40
2019-02-02T17:03:03.285Z,3.30
2019-02-02T17:05:32.603Z,3.30
2019-02-02T17:08:02.019Z,3.30
2019-02-02T17:10:33.606Z,3.30
2019-02-02T17:13:02.923Z,3.20
2019-02-02T17:15:32.250Z,3.20
2019-02-02T17:18:01.528Z,3.20
2019-02-02T17:20:33.513Z,3.30
2019-02-02T17:23:02.749Z,3.40
2019-02-02T17:25:32.182Z,3.40
2019-02-02T17:28:01.447Z,3.40
2019-02-02T17:30:30.694Z,3.50
2019-02-02T17:33:02.864Z,3.50
2019-02-02T17:35:32.202Z,3.50
2019-02-02T17:38:01.578Z,3.60
2019-02-02T17:40:31.308Z,3.60
2019-02-02T17:43:00.665Z,3.60
2019-02-02T17:45:30.055Z,3.60
2019-02-02T17:47:59.292Z,3.60
2019-02-02T17:50:29.839Z,3.60
2019-02-02T17:52:59.229Z,3.60
2019-02-02T17:55:28.588Z,3.60
2019-02-02T17:57:57.864Z,3.70
2019-02-02T18:00:49.276Z,3.60
2019-02-02T18:03:18.582Z,3.60
2019-02-02T18:05:47.824Z,3.60
2019-02-02T18:08:17.072Z,3.60
2019-02-02T18:10:46.340Z,3.60
2019-02-02T18:13:15.576Z,3.50
2019-02-02T18:15:44.858Z,3.50
2019-02-02T18:18:14.108Z,3.50
2019-02-02T18:20:43.345Z,3.50
2019-02-02T18:23:12.593Z,3.60
2019-02-02T18:25:42.460Z,3.60
2019-02-02T18:28:11.716Z,3.60
2019-02-02T18:30:40.964Z,3.60
2019-02-02T18:33:10.206Z,3.60
2019-02-02T18:35:39.437Z,3.60
2019-02-02T18:38:08.786Z,3.60
2019-02-02T18:40:39.984Z,3.60
2019-02-02T18:43:08.963Z,3.60
2019-02-02T18:45:38.386Z,3.60
2019-02-02T18:48:07.828Z,3.60
2019-02-02T18:50:37.121Z,3.60
2019-02-02T18:53:06.396Z,3.60
2019-02-02T18:55:41.599Z,3.60
2019-02-02T18:58:10.919Z,3.60
2019-02-02T19:00:40.166Z,3.50
2019-02-02T19:03:09.573Z,3.60
2019-02-02T19:05:38.811Z,3.50
2019-02-02T19:08:08.052Z,3.50
2019-02-02T19:10:40.425Z,3.50
2019-02-02T19:13:10.098Z,3.50
2019-02-02T19:15:39.393Z,3.40
2019-02-02T19:18:08.720Z,3.40
2019-02-02T19:20:38.003Z,3.40
2019-02-02T19:23:07.326Z,3.30
2019-02-02T19:25:36.582Z,3.30
2019-02-02T19:28:06.886Z,3.20
2019-02-02T19:30:36.677Z,3.20
2019-02-02T19:33:06.452Z,3.10
2019-02-02T19:35:35.727Z,3.00
2019-02-02T19:38:05.301Z,3.00
2019-02-02T19:40:34.522Z,3.00
2019-02-02T19:43:04.136Z,2.90
2019-02-02T19:45:33.454Z,2.90
2019-02-02T19:48:02.697Z,2.80
2019-02-02T19:50:31.916Z,2.80
2019-02-02T19:53:01.279Z,2.70
2019-02-02T19:55:30.724Z,2.80
2019-02-02T19:58:00.038Z,2.70
2019-02-02T20:00:33.914Z,2.70
2019-02-02T20:03:03.902Z,2.70
2019-02-02T20:05:33.150Z,2.70
2019-02-02T20:08:02.405Z,2.70
2019-02-02T20:10:31.655Z,2.70
2019-02-02T20:13:00.917Z,2.70
2019-02-02T20:15:30.232Z,2.70
2019-02-02T20:18:09.546Z,2.80
2019-02-02T20:20:30.514Z,2.80
2019-02-02T20:22:59.751Z,2.90
2019-02-02T20:25:29.015Z,3.00
2019-02-02T20:27:58.281Z,3.00
2019-02-02T20:30:31.836Z,3.10
2019-02-02T20:33:01.117Z,3.10
2019-02-02T20:35:40.183Z,3.20
2019-02-02T20:38:01.314Z,3.10
2019-02-02T20:40:30.563Z,3.20
2019-02-02T20:42:59.803Z,3.20
2019-02-02T20:45:34.849Z,3.20
2019-02-02T20:48:04.786Z,3.20
2019-02-02T20:50:34.026Z,3.90
2019-02-02T20:53:03.645Z,3.30
2019-02-02T20:55:36.124Z,3.30
2019-02-02T20:58:06.247Z,3.30
2019-02-02T21:00:35.573Z,3.40
2019-02-02T21:03:05.153Z,3.40
2019-02-02T21:05:34.486Z,3.40
2019-02-02T21:08:04.458Z,3.40
2019-02-02T21:10:33.803Z,3.40
2019-02-02T21:13:03.037Z,3.50
2019-02-02T21:15:32.275Z,3.50
2019-02-02T21:18:01.536Z,3.50
2019-02-02T21:20:31.171Z,3.60
2019-02-02T21:23:00.557Z,3.60
2019-02-02T21:25:29.894Z,3.60
2019-02-02T21:27:59.148Z,3.60
2019-02-02T21:30:31.001Z,3.60
2019-02-02T21:33:00.327Z,3.70
2019-02-02T21:35:29.649Z,3.70
2019-02-02T21:37:58.907Z,3.60
2019-02-02T21:40:30.381Z,3.70
2019-02-02T21:42:59.851Z,3.70
2019-02-02T21:45:29.349Z,3.60
2019-02-02T21:47:58.699Z,3.60
2019-02-02T21:50:28.022Z,3.60
2019-02-02T21:52:57.273Z,3.60
2019-02-02T21:55:28.755Z,3.60
2019-02-02T21:57:58.233Z,3.50
2019-02-02T22:00:30.302Z,3.50
2019-02-02T22:02:59.573Z,3.50
2019-02-02T22:05:28.943Z,3.50
2019-02-02T22:07:58.273Z,3.50
2019-02-02T22:10:27.680Z,3.40
2019-02-02T22:12:57.295Z,3.40
2019-02-02T22:15:27.976Z,3.40
2019-02-02T22:17:57.423Z,3.40
2019-02-02T22:20:26.819Z,3.40
2019-02-02T22:22:56.134Z,3.40
2019-02-02T22:25:30.670Z,3.40
2019-02-02T22:28:00.185Z,3.40
2019-02-02T22:30:32.110Z,3.40
2019-02-02T22:33:01.421Z,3.40
2019-02-02T22:35:30.748Z,3.40
2019-02-02T22:38:00.608Z,3.40
2019-02-02T22:40:30.098Z,3.50
2019-02-02T22:42:59.576Z,3.50
2019-02-02T22:45:28.887Z,3.50
2019-02-02T22:47:58.140Z,3.50
2019-02-02T22:50:28.528Z,3.40
2019-02-02T22:52:57.798Z,3.40
2019-02-02T22:55:27.162Z,3.40
2019-02-02T22:57:56.492Z,3.40
2019-02-02T23:00:48.327Z,3.40
2019-02-02T23:03:26.488Z,3.80
2019-02-02T23:06:11.032Z,3.40
2019-02-02T23:09:06.617Z,3.50
2019-02-02T23:11:51.074Z,3.40
2019-02-02T23:14:26.268Z,3.40
2019-02-02T23:16:55.587Z,3.50
2019-02-02T23:19:24.831Z,3.50
2019-02-02T23:21:54.075Z,3.40
2019-02-02T23:24:23.330Z,3.40
2019-02-02T23:26:52.970Z,3.40
2019-02-02T23:29:22.378Z,3.40
2019-02-02T23:31:51.674Z,3.50
2019-02-02T23:34:20.921Z,3.50
2019-02-02T23:36:54.544Z,3.50
2019-02-02T23:39:21.223Z,3.50
2019-02-02T23:41:50.548Z,3.50
2019-02-02T23:44:19.805Z,3.50
2019-02-02T23:46:49.440Z,3.50
2019-02-02T23:49:18.850Z,3.50
2019-02-02T23:51:48.109Z,3.50
2019-02-02T23:54:17.390Z,3.40
2019-02-02T23:56:49.353Z,3.50
2019-02-02T23:59:18.606Z,3.40
